Time,TemperatureF,DewpointF,PressureIn,WindDirection,WindDirectionDegrees,WindSpeedMPH,WindSpeedGustMPH,Humidity,HourlyPrecipIn,Conditions,Clouds,dailyrainin,SoftwareType,DateUTC
2013-08-10 00:01:00,60.8,44.5,29.00,West,280,0.0,0.0,55,0.00,,CLR,0.00,VWS V14.00,2013-08-10 05:01:00,
2013-08-10 00:06:00,60.6,44.8,29.00,West,280,0.0,0.0,56,0.00,,CLR,0.00,VWS V14.00,2013-08-10 05:06:00,
2013-08-10 00:11:00,60.6,45.8,29.00,West,280,0.0,0.0,58,0.00,,CLR,0.00,VWS V14.00,2013-08-10 05:11:00,
2013-08-10 00:16:00,60.6,46.7,29.00,West,280,0.0,0.0,60,0.00,,CLR,0.00,VWS V14.00,2013-08-10 05:16:00,
2013-08-10 00:21:00,60.4,46.5,29.00,West,280,0.0,0.0,60,0.00,,CLR,0.00,VWS V14.00,2013-08-10 05:21:00,
2013-08-10 00:26:00,60.1,46.2,29.00,West,280,0.0,0.0,60,0.00,,CLR,0.00,VWS V14.00,2013-08-10 05:26:00,
2013-08-10 00:31:00,60.1,46.6,29.00,West,280,0.0,0.0,61,0.00,,CLR,0.00,VWS V14.00,2013-08-10 05:31:00,
2013-08-10 00:36:00,60.3,46.8,29.00,West,280,0.0,0.0,61,0.00,,CLR,0.00,VWS V14.00,2013-08-10 05:36:00,
2013-08-10 00:41:00,60.1,47.0,29.00,West,280,0.0,0.0,62,0.00,,CLR,0.00,VWS V14.00,2013-08-10 05:41:00,
2013-08-10 00:46:00,59.7,47.1,29.00,West,280,0.0,0.0,63,0.00,,CLR,0.00,VWS V14.00,2013-08-10 05:46:00,
2013-08-10 00:51:00,59.7,47.1,29.00,West,280,0.0,0.0,63,0.00,,CLR,0.00,VWS V14.00,2013-08-10 05:51:00,
2013-08-10 00:56:00,59.7,47.5,29.00,West,280,0.0,0.0,64,0.00,,CLR,0.00,VWS V14.00,2013-08-10 05:56:00,
2013-08-10 01:01:00,59.9,48.1,29.00,West,280,0.0,0.0,65,0.00,,CLR,0.00,VWS V14.00,2013-08-10 06:01:00,
2013-08-10 01:06:00,59.7,48.0,29.00,West,280,0.0,0.0,65,0.00,,CLR,0.00,VWS V14.00,2013-08-10 06:06:00,
2013-08-10 01:11:00,59.5,48.2,29.03,West,280,0.0,0.0,66,0.00,,CLR,0.00,VWS V14.00,2013-08-10 06:11:00,
2013-08-10 01:16:00,59.5,48.6,29.03,West,280,0.0,0.0,67,0.00,,CLR,0.00,VWS V14.00,2013-08-10 06:16:00,
2013-08-10 01:21:00,59.4,48.4,29.03,West,280,0.0,0.0,67,0.00,,CLR,0.00,VWS V14.00,2013-08-10 06:21:00,
2013-08-10 01:26:00,59.7,49.2,29.03,West,280,0.0,0.0,68,0.00,,CLR,0.00,VWS V14.00,2013-08-10 06:26:00,
2013-08-10 01:31:00,59.5,49.4,29.03,West,280,0.0,0.0,69,0.00,,CLR,0.00,VWS V14.00,2013-08-10 06:31:00,
2013-08-10 01:36:00,59.4,49.2,29.03,West,280,0.0,0.0,69,0.00,,CLR,0.00,VWS V14.00,2013-08-10 06:36:00,
2013-08-10 01:41:00,59.5,50.1,29.03,West,280,0.0,0.0,71,0.00,,CLR,0.00,VWS V14.00,2013-08-10 06:41:00,
2013-08-10 01:46:00,59.7,50.7,29.03,West,280,0.0,0.0,72,0.00,,CLR,0.00,VWS V14.00,2013-08-10 06:46:00,
2013-08-10 01:51:00,60.1,51.4,29.03,West,280,0.0,0.0,73,0.00,,CLR,0.00,VWS V14.00,2013-08-10 06:51:00,
2013-08-10 01:56:00,60.1,51.4,29.03,West,280,0.0,0.0,73,0.00,,CLR,0.00,VWS V14.00,2013-08-10 06:56:00,
2013-08-10 02:01:00,60.1,51.4,29.03,West,280,0.0,0.0,73,0.00,,CLR,0.00,VWS V14.00,2013-08-10 07:01:00,
2013-08-10 02:06:00,60.1,51.4,29.03,West,280,0.0,0.0,73,0.00,,CLR,0.00,VWS V14.00,2013-08-10 07:06:00,
2013-08-10 02:11:00,59.9,51.2,29.03,West,280,0.0,0.0,73,0.00,,CLR,0.00,VWS V14.00,2013-08-10 07:11:00,
2013-08-10 02:16:00,59.5,50.5,29.03,West,280,0.0,0.0,72,0.00,,CLR,0.00,VWS V14.00,2013-08-10 07:16:00,
2013-08-10 02:21:00,59.4,50.7,29.03,West,280,0.0,0.0,73,0.00,,CLR,0.00,VWS V14.00,2013-08-10 07:21:00,
2013-08-10 02:26:00,59.4,50.7,29.03,West,280,0.0,0.0,73,0.00,,CLR,0.00,VWS V14.00,2013-08-10 07:26:00,
2013-08-10 02:31:00,59.0,50.4,29.03,West,280,0.0,0.0,73,0.00,,CLR,0.00,VWS V14.00,2013-08-10 07:31:00,
2013-08-10 02:36:00,58.8,50.2,29.03,West,280,0.0,0.0,73,0.00,,CLR,0.00,VWS V14.00,2013-08-10 07:36:00,
2013-08-10 02:41:00,58.6,50.0,29.03,West,280,0.0,0.0,73,0.00,,CLR,0.00,VWS V14.00,2013-08-10 07:41:00,
2013-08-10 02:46:00,58.6,50.4,29.03,West,280,0.0,0.0,74,0.00,,CLR,0.00,VWS V14.00,2013-08-10 07:46:00,
2013-08-10 02:51:00,58.5,50.2,29.03,West,280,0.0,0.0,74,0.00,,CLR,0.00,VWS V14.00,2013-08-10 07:51:00,
2013-08-10 02:56:00,58.3,50.0,29.03,West,280,0.0,0.0,74,0.00,,CLR,0.00,VWS V14.00,2013-08-10 07:56:00,
2013-08-10 03:01:00,58.5,50.2,29.03,West,280,0.0,0.0,74,0.00,,CLR,0.00,VWS V14.00,2013-08-10 08:01:00,
2013-08-10 03:06:00,58.6,50.4,29.03,West,280,0.0,0.0,74,0.00,,CLR,0.00,VWS V14.00,2013-08-10 08:06:00,
2013-08-10 03:11:00,58.8,50.9,29.03,West,280,0.0,0.0,75,0.00,,CLR,0.00,VWS V14.00,2013-08-10 08:11:00,
2013-08-10 03:16:00,58.8,51.3,29.03,West,280,0.0,0.0,76,0.00,,CLR,0.00,VWS V14.00,2013-08-10 08:16:00,
2013-08-10 03:21:00,58.8,51.3,29.03,West,280,0.0,0.0,76,0.00,,CLR,0.00,VWS V14.00,2013-08-10 08:21:00,
2013-08-10 03:26:00,59.0,51.5,29.03,West,280,0.0,0.0,76,0.00,,CLR,0.00,VWS V14.00,2013-08-10 08:26:00,
2013-08-10 03:31:00,59.0,51.8,29.06,West,280,0.0,0.0,77,0.00,,CLR,0.00,VWS V14.00,2013-08-10 08:31:00,
2013-08-10 03:36:00,58.8,52.0,29.06,West,280,0.0,0.0,78,0.00,,CLR,0.00,VWS V14.00,2013-08-10 08:36:00,
2013-08-10 03:41:00,58.8,52.0,29.03,West,280,0.0,0.0,78,0.00,,CLR,0.00,VWS V14.00,2013-08-10 08:41:00,
2013-08-10 03:46:00,58.8,52.0,29.03,West,280,0.0,0.0,78,0.00,,CLR,0.00,VWS V14.00,2013-08-10 08:46:00,
2013-08-10 03:51:00,58.6,51.8,29.03,West,280,0.0,0.0,78,0.00,,CLR,0.00,VWS V14.00,2013-08-10 08:51:00,
2013-08-10 03:56:00,58.5,52.0,29.03,West,280,0.0,0.0,79,0.00,,CLR,0.00,VWS V14.00,2013-08-10 08:56:00,
2013-08-10 04:01:00,58.1,51.6,29.03,West,280,0.0,0.0,79,0.00,,CLR,0.00,VWS V14.00,2013-08-10 09:01:00,
2013-08-10 04:06:00,58.1,51.6,29.03,West,280,0.0,0.0,79,0.00,,CLR,0.00,VWS V14.00,2013-08-10 09:06:00,
2013-08-10 04:11:00,58.3,51.8,29.03,West,280,0.0,0.0,79,0.00,,CLR,0.00,VWS V14.00,2013-08-10 09:11:00,
2013-08-10 04:16:00,58.1,51.6,29.03,West,280,0.0,0.0,79,0.00,,CLR,0.00,VWS V14.00,2013-08-10 09:16:00,
2013-08-10 04:20:00,57.9,51.5,29.03,West,280,0.0,0.0,79,0.00,,CLR,0.00,VWS V14.00,2013-08-10 09:20:00,
2013-08-10 04:25:00,58.1,51.6,29.06,West,280,0.0,0.0,79,0.00,,CLR,0.00,VWS V14.00,2013-08-10 09:25:00,
2013-08-10 04:30:00,58.1,51.6,29.06,West,280,0.0,0.0,79,0.00,,CLR,0.00,VWS V14.00,2013-08-10 09:30:00,
2013-08-10 04:36:00,58.1,52.0,29.06,West,280,0.0,0.0,80,0.00,,CLR,0.00,VWS V14.00,2013-08-10 09:36:00,
2013-08-10 04:41:00,57.9,51.8,29.06,West,280,0.0,0.0,80,0.00,,CLR,0.00,VWS V14.00,2013-08-10 09:41:00,
2013-08-10 04:46:00,57.9,51.8,29.06,West,280,0.0,0.0,80,0.00,,CLR,0.00,VWS V14.00,2013-08-10 09:46:00,
2013-08-10 04:50:00,57.6,51.8,29.06,West,280,0.0,0.0,81,0.00,,CLR,0.00,VWS V14.00,2013-08-10 09:50:00,
2013-08-10 04:55:00,57.4,51.3,29.06,West,280,0.0,0.0,80,0.00,,CLR,0.00,VWS V14.00,2013-08-10 09:55:00,
2013-08-10 05:00:00,57.4,51.3,29.06,West,280,0.0,0.0,80,0.00,,CLR,0.00,VWS V14.00,2013-08-10 10:00:00,
2013-08-10 05:05:00,57.7,52.0,29.06,West,280,0.0,0.0,81,0.00,,CLR,0.00,VWS V14.00,2013-08-10 10:05:00,
2013-08-10 05:10:00,57.6,51.8,29.06,West,280,0.0,0.0,81,0.00,,CLR,0.00,VWS V14.00,2013-08-10 10:10:00,
2013-08-10 05:15:00,57.4,51.6,29.06,West,280,0.0,0.0,81,0.00,,CLR,0.00,VWS V14.00,2013-08-10 10:15:00,
2013-08-10 05:20:00,57.6,52.1,29.06,West,280,0.0,0.0,82,0.00,,CLR,0.00,VWS V14.00,2013-08-10 10:20:00,
2013-08-10 05:25:00,57.6,52.1,29.06,West,280,0.0,0.0,82,0.00,,CLR,0.00,VWS V14.00,2013-08-10 10:25:00,
2013-08-10 05:30:00,57.4,51.9,29.03,West,280,0.0,0.0,82,0.00,,CLR,0.00,VWS V14.00,2013-08-10 10:30:00,
2013-08-10 05:35:00,57.2,51.8,29.03,West,280,0.0,0.0,82,0.00,,CLR,0.00,VWS V14.00,2013-08-10 10:35:00,
2013-08-10 05:40:00,56.8,51.7,29.03,West,280,0.0,0.0,83,0.00,,CLR,0.00,VWS V14.00,2013-08-10 10:40:00,
2013-08-10 05:45:00,56.8,51.7,29.03,West,280,0.0,0.0,83,0.00,,CLR,0.00,VWS V14.00,2013-08-10 10:45:00,
2013-08-10 05:50:00,56.5,51.4,29.03,West,280,0.0,0.0,83,0.00,,CLR,0.00,VWS V14.00,2013-08-10 10:50:00,
2013-08-10 05:55:00,56.3,51.2,29.06,West,280,0.0,0.0,83,0.00,,CLR,0.00,VWS V14.00,2013-08-10 10:55:00,
2013-08-10 06:00:00,56.3,51.2,29.06,West,280,0.0,0.0,83,0.00,,CLR,0.00,VWS V14.00,2013-08-10 11:00:00,
2013-08-10 06:05:00,56.1,51.4,29.06,West,280,0.0,0.0,84,0.00,,CLR,0.00,VWS V14.00,2013-08-10 11:05:00,
2013-08-10 06:10:00,56.1,51.4,29.06,West,280,0.0,0.0,84,0.00,,CLR,0.00,VWS V14.00,2013-08-10 11:10:00,
2013-08-10 06:15:00,56.1,51.4,29.06,West,280,0.0,0.0,84,0.00,,CLR,0.00,VWS V14.00,2013-08-10 11:15:00,
2013-08-10 06:20:00,55.9,51.2,29.06,West,280,0.0,0.0,84,0.00,,CLR,0.00,VWS V14.00,2013-08-10 11:20:00,
2013-08-10 06:25:00,56.3,51.5,29.06,West,280,0.0,0.0,84,0.00,,CLR,0.00,VWS V14.00,2013-08-10 11:25:00,
2013-08-10 06:30:00,56.3,51.5,29.06,West,280,0.0,0.0,84,0.00,,CLR,0.00,VWS V14.00,2013-08-10 11:30:00,
2013-08-10 06:35:00,56.3,51.5,29.06,West,280,0.0,0.0,84,0.00,,CLR,0.00,VWS V14.00,2013-08-10 11:35:00,
2013-08-10 06:40:00,56.3,51.5,29.06,West,280,0.0,0.0,84,0.00,,CLR,0.00,VWS V14.00,2013-08-10 11:40:00,
2013-08-10 06:45:00,56.5,51.7,29.06,West,280,0.0,0.0,84,0.00,,CLR,0.00,VWS V14.00,2013-08-10 11:45:00,
2013-08-10 06:50:00,57.7,53.9,29.06,West,280,0.0,0.0,87,0.00,,CLR,0.00,VWS V14.00,2013-08-10 11:50:00,
2013-08-10 06:55:00,59.4,56.1,29.06,West,280,0.0,0.0,89,0.00,,CLR,0.00,VWS V14.00,2013-08-10 11:55:00,
2013-08-10 07:00:00,60.4,57.5,29.06,West,280,0.0,0.0,90,0.00,,CLR,0.00,VWS V14.00,2013-08-10 12:00:00,
2013-08-10 07:05:00,61.3,58.4,29.06,West,280,0.0,0.0,90,0.00,,CLR,0.00,VWS V14.00,2013-08-10 12:05:00,
2013-08-10 07:10:00,62.8,59.8,29.06,West,280,0.0,0.0,90,0.00,,CLR,0.00,VWS V14.00,2013-08-10 12:10:00,
2013-08-10 07:15:00,64.0,61.4,29.06,West,280,0.0,0.0,91,0.00,,CLR,0.00,VWS V14.00,2013-08-10 12:15:00,
2013-08-10 07:20:00,65.5,62.8,29.06,West,280,0.0,0.0,91,0.00,,CLR,0.00,VWS V14.00,2013-08-10 12:20:00,
2013-08-10 07:25:00,66.2,60.9,29.06,West,280,0.0,0.0,83,0.00,,CLR,0.00,VWS V14.00,2013-08-10 12:25:00,
2013-08-10 07:30:00,67.5,57.7,29.06,West,280,0.0,0.0,71,0.00,,CLR,0.00,VWS V14.00,2013-08-10 12:30:00,
2013-08-10 07:35:00,69.1,55.1,29.06,West,280,0.0,0.0,61,0.00,,CLR,0.00,VWS V14.00,2013-08-10 12:35:00,
2013-08-10 07:40:00,70.7,50.6,29.06,West,280,0.0,0.0,49,0.00,,CLR,0.00,VWS V14.00,2013-08-10 12:40:00,
2013-08-10 07:45:00,72.0,48.3,29.06,West,280,0.0,0.0,43,0.00,,CLR,0.00,VWS V14.00,2013-08-10 12:45:00,
2013-08-10 07:50:00,73.9,43.8,29.06,West,280,0.0,0.0,34,0.00,,CLR,0.00,VWS V14.00,2013-08-10 12:50:00,
2013-08-10 07:55:00,74.7,37.5,29.06,NNW,329,0.0,0.0,26,0.00,,CLR,0.00,VWS V14.00,2013-08-10 12:55:00,
2013-08-10 08:00:00,75.0,40.6,29.06,NNW,329,0.0,0.0,29,0.00,,CLR,0.00,VWS V14.00,2013-08-10 13:00:00,
2013-08-10 08:05:00,75.7,36.4,29.06,NNW,329,0.0,0.0,24,0.00,,CLR,0.00,VWS V14.00,2013-08-10 13:05:00,
2013-08-10 08:10:00,76.5,34.8,29.06,NNW,329,0.0,0.0,22,0.00,,CLR,0.00,VWS V14.00,2013-08-10 13:10:00,
2013-08-10 08:15:00,76.8,34.0,29.06,NNW,329,0.0,0.0,21,0.00,,CLR,0.00,VWS V14.00,2013-08-10 13:15:00,
2013-08-10 08:20:00,77.2,34.3,29.06,NNW,329,0.0,0.0,21,0.00,,CLR,0.00,VWS V14.00,2013-08-10 13:20:00,
2013-08-10 08:25:00,77.4,34.4,29.06,NNE,22,0.0,0.0,21,0.00,,CLR,0.00,VWS V14.00,2013-08-10 13:25:00,
2013-08-10 08:30:00,78.1,33.8,29.06,NNE,22,0.0,0.0,20,0.00,,CLR,0.00,VWS V14.00,2013-08-10 13:30:00,
2013-08-10 08:35:00,79.0,34.5,29.06,ENE,70,0.0,2.7,20,0.00,,CLR,0.00,VWS V14.00,2013-08-10 13:35:00,
2013-08-10 08:40:00,79.7,31.1,29.06,NNE,27,0.0,0.0,17,0.00,,CLR,0.00,VWS V14.00,2013-08-10 13:40:00,
2013-08-10 08:45:00,80.6,31.8,29.06,NNE,27,0.0,0.0,17,0.00,,CLR,0.00,VWS V14.00,2013-08-10 13:45:00,
2013-08-10 08:50:00,81.7,27.9,29.06,NNE,28,0.0,0.0,14,0.00,,CLR,0.00,VWS V14.00,2013-08-10 13:50:00,
2013-08-10 08:55:00,81.7,27.9,29.06,NNE,28,0.0,0.0,14,0.00,,CLR,0.00,VWS V14.00,2013-08-10 13:55:00,
2013-08-10 09:00:00,82.2,28.3,29.06,ENE,63,0.0,0.0,14,0.00,,CLR,0.00,VWS V14.00,2013-08-10 14:00:00,
2013-08-10 09:05:00,82.6,28.6,29.06,NE,52,2.7,2.7,14,0.00,,CLR,0.00,VWS V14.00,2013-08-10 14:05:00,
2013-08-10 09:10:00,82.9,28.9,29.06,NNE,31,0.0,0.0,14,0.00,,CLR,0.00,VWS V14.00,2013-08-10 14:10:00,
2013-08-10 09:15:00,81.5,27.8,29.06,NE,48,0.0,3.6,14,0.00,,CLR,0.00,VWS V14.00,2013-08-10 14:15:00,
2013-08-10 09:20:00,82.4,28.5,29.06,NE,55,0.0,3.1,14,0.00,,CLR,0.00,VWS V14.00,2013-08-10 14:20:00,
2013-08-10 09:26:00,84.0,29.8,29.06,NE,44,0.0,3.1,14,0.00,,CLR,0.00,VWS V14.00,2013-08-10 14:26:00,
2013-08-10 09:30:00,84.2,28.1,29.06,NW,314,0.0,0.0,13,0.00,,CLR,0.00,VWS V14.00,2013-08-10 14:30:00,
2013-08-10 09:35:00,86.2,29.6,29.06,NE,36,0.0,0.0,13,0.00,,CLR,0.00,VWS V14.00,2013-08-10 14:35:00,
2013-08-10 09:40:00,87.8,30.9,29.06,NE,36,0.0,0.0,13,0.00,,CLR,0.00,VWS V14.00,2013-08-10 14:40:00,
2013-08-10 09:45:00,89.1,31.9,29.09,NE,36,0.0,0.0,13,0.00,,CLR,0.00,VWS V14.00,2013-08-10 14:45:00,
2013-08-10 09:50:00,89.8,30.5,29.09,NE,36,0.0,0.0,12,0.00,,CLR,0.00,VWS V14.00,2013-08-10 14:50:00,
2013-08-10 09:55:00,90.0,30.6,29.09,NE,36,0.0,0.0,12,0.00,,CLR,0.00,VWS V14.00,2013-08-10 14:55:00,
2013-08-10 10:00:00,88.3,31.3,29.09,NE,56,0.0,0.0,13,0.00,,CLR,0.00,VWS V14.00,2013-08-10 15:00:00,
2013-08-10 10:05:00,88.2,31.2,29.09,NE,56,0.0,2.7,13,0.00,,CLR,0.00,VWS V14.00,2013-08-10 15:05:00,
2013-08-10 10:10:00,88.5,31.5,29.09,NE,56,2.7,2.7,13,0.00,,CLR,0.00,VWS V14.00,2013-08-10 15:10:00,
2013-08-10 10:15:00,88.9,31.7,29.09,ENE,61,4.0,4.0,13,0.00,,CLR,0.00,VWS V14.00,2013-08-10 15:15:00,
2013-08-10 10:20:00,88.5,31.5,29.09,East,80,0.0,0.0,13,0.00,,CLR,0.00,VWS V14.00,2013-08-10 15:20:00,
2013-08-10 10:25:00,89.4,32.2,29.09,East,81,0.0,0.0,13,0.00,,CLR,0.00,VWS V14.00,2013-08-10 15:25:00,
2013-08-10 10:30:00,91.2,31.6,29.06,North,349,3.1,4.0,12,0.00,,CLR,0.00,VWS V14.00,2013-08-10 15:30:00,
2013-08-10 10:35:00,89.6,30.3,29.06,North,0,3.6,4.0,12,0.00,,CLR,0.00,VWS V14.00,2013-08-10 15:35:00,
2013-08-10 10:40:00,90.0,30.6,29.06,ENE,60,0.0,4.0,12,0.00,,CLR,0.00,VWS V14.00,2013-08-10 15:40:00,
2013-08-10 10:45:00,90.3,30.9,29.06,North,353,0.0,4.0,12,0.00,,CLR,0.00,VWS V14.00,2013-08-10 15:45:00,
2013-08-10 10:50:00,91.0,31.4,29.06,NW,317,3.1,3.1,12,0.00,,CLR,0.00,VWS V14.00,2013-08-10 15:50:00,
2013-08-10 10:55:00,90.1,30.7,29.06,NE,50,2.7,5.4,12,0.00,,CLR,0.00,VWS V14.00,2013-08-10 15:55:00,
2013-08-10 11:00:00,89.8,30.5,29.06,NE,52,0.0,0.0,12,0.00,,CLR,0.00,VWS V14.00,2013-08-10 16:00:00,
2013-08-10 11:05:00,90.7,31.2,29.06,NE,50,0.0,3.6,12,0.00,,CLR,0.00,VWS V14.00,2013-08-10 16:05:00,
2013-08-10 11:10:00,92.8,32.8,29.06,NE,40,2.2,3.6,12,0.00,,CLR,0.00,VWS V14.00,2013-08-10 16:10:00,
2013-08-10 11:15:00,94.1,31.6,29.09,NE,40,3.1,3.6,11,0.00,,CLR,0.00,VWS V14.00,2013-08-10 16:15:00,
2013-08-10 11:20:00,93.7,31.4,29.09,ENE,57,0.0,2.7,11,0.00,,CLR,0.00,VWS V14.00,2013-08-10 16:20:00,
2013-08-10 11:25:00,93.6,31.2,29.09,NNE,31,0.0,4.0,11,0.00,,CLR,0.00,VWS V14.00,2013-08-10 16:25:00,
2013-08-10 11:30:00,91.2,31.6,29.09,NNW,334,2.2,3.1,12,0.00,,CLR,0.00,VWS V14.00,2013-08-10 16:30:00,
2013-08-10 11:35:00,90.7,31.2,29.09,WNW,298,0.0,3.1,12,0.00,,CLR,0.00,VWS V14.00,2013-08-10 16:35:00,
2013-08-10 11:40:00,92.5,32.5,29.09,ESE,108,0.0,0.0,12,0.00,,CLR,0.00,VWS V14.00,2013-08-10 16:40:00,
2013-08-10 11:45:00,93.4,31.1,29.06,SE,131,2.2,3.1,11,0.00,,CLR,0.00,VWS V14.00,2013-08-10 16:45:00,
2013-08-10 11:50:00,92.8,32.8,29.06,SE,130,3.6,3.6,12,0.00,,CLR,0.00,VWS V14.00,2013-08-10 16:50:00,
2013-08-10 11:55:00,95.0,32.3,29.06,ENE,61,2.7,3.6,11,0.00,,CLR,0.00,VWS V14.00,2013-08-10 16:55:00,
2013-08-10 12:00:00,92.7,32.7,29.06,NE,55,3.1,3.1,12,0.00,,CLR,0.00,VWS V14.00,2013-08-10 17:00:00,
2013-08-10 12:05:00,91.9,32.1,29.06,SE,141,3.6,4.0,12,0.00,,CLR,0.00,VWS V14.00,2013-08-10 17:05:00,
2013-08-10 12:10:00,93.6,31.2,29.06,NE,48,0.0,0.0,11,0.00,,CLR,0.00,VWS V14.00,2013-08-10 17:10:00,
2013-08-10 12:15:00,94.5,31.9,29.06,SE,124,3.6,4.0,11,0.00,,CLR,0.00,VWS V14.00,2013-08-10 17:15:00,
2013-08-10 12:20:00,95.7,32.9,29.06,NNE,20,0.0,4.0,11,0.00,,CLR,0.00,VWS V14.00,2013-08-10 17:20:00,
2013-08-10 12:25:00,94.6,32.0,29.06,SE,130,2.7,4.9,11,0.00,,CLR,0.00,VWS V14.00,2013-08-10 17:25:00,
2013-08-10 12:30:00,93.7,31.4,29.06,NE,56,0.0,3.6,11,0.00,,CLR,0.00,VWS V14.00,2013-08-10 17:30:00,
2013-08-10 12:35:00,92.7,32.7,29.06,SE,127,2.7,3.6,12,0.00,,CLR,0.00,VWS V14.00,2013-08-10 17:35:00,
2013-08-10 12:40:00,90.7,31.2,29.06,SE,136,0.0,3.1,12,0.00,,CLR,0.00,VWS V14.00,2013-08-10 17:40:00,
2013-08-10 12:45:00,89.1,31.9,29.06,SE,132,0.0,4.0,13,0.00,,CLR,0.00,VWS V14.00,2013-08-10 17:45:00,
2013-08-10 12:50:00,88.2,31.2,29.06,NE,48,0.0,0.0,13,0.00,,CLR,0.00,VWS V14.00,2013-08-10 17:50:00,
2013-08-10 12:55:00,86.9,30.2,29.06,East,96,0.0,3.6,13,0.00,,CLR,0.00,VWS V14.00,2013-08-10 17:55:00,
2013-08-10 13:00:00,86.2,29.6,29.06,NE,55,3.6,3.6,13,0.00,,FEW050,0.00,VWS V14.00,2013-08-10 18:00:00,
2013-08-10 13:05:00,86.4,29.8,29.06,SE,124,2.7,4.0,13,0.00,,FEW050,0.00,VWS V14.00,2013-08-10 18:05:00,
2013-08-10 13:10:00,88.2,31.2,29.06,SE,124,0.0,3.1,13,0.00,,FEW050,0.00,VWS V14.00,2013-08-10 18:10:00,
2013-08-10 13:15:00,89.6,30.3,29.06,SE,127,0.0,4.9,12,0.00,,FEW050,0.00,VWS V14.00,2013-08-10 18:15:00,
2013-08-10 13:20:00,92.8,32.8,29.06,NE,52,3.6,4.0,12,0.00,,FEW050,0.00,VWS V14.00,2013-08-10 18:20:00,
2013-08-10 13:25:00,92.8,32.8,29.06,SE,130,2.7,4.0,12,0.00,,FEW050,0.00,VWS V14.00,2013-08-10 18:25:00,
2013-08-10 13:30:00,95.5,32.7,29.06,ENE,58,2.2,3.1,11,0.00,,FEW050,0.00,VWS V14.00,2013-08-10 18:30:00,
2013-08-10 13:35:00,97.2,34.0,29.06,ESE,121,2.2,4.0,11,0.00,,FEW050,0.00,VWS V14.00,2013-08-10 18:35:00,
2013-08-10 13:40:00,98.1,34.7,29.06,SE,137,2.2,3.6,11,0.00,,FEW050,0.00,VWS V14.00,2013-08-10 18:40:00,
2013-08-10 13:45:00,96.6,33.6,29.06,NE,41,3.6,5.4,11,0.00,,FEW050,0.00,VWS V14.00,2013-08-10 18:45:00,
2013-08-10 13:50:00,92.8,32.8,29.06,NE,50,0.0,0.0,12,0.00,,FEW050,0.00,VWS V14.00,2013-08-10 18:50:00,
2013-08-10 13:55:00,94.3,31.8,29.06,SSE,147,3.6,3.6,11,0.00,,FEW050,0.00,VWS V14.00,2013-08-10 18:55:00,
2013-08-10 14:00:00,89.2,32.0,29.06,SE,146,0.0,0.0,13,0.00,,FEW047,0.00,VWS V14.00,2013-08-10 19:00:00,
2013-08-10 14:05:00,92.7,32.7,29.06,SE,128,3.1,3.1,12,0.00,,FEW047,0.00,VWS V14.00,2013-08-10 19:05:00,
2013-08-10 14:10:00,95.4,32.6,29.06,SE,130,0.0,3.1,11,0.00,,FEW047,0.00,VWS V14.00,2013-08-10 19:10:00,
2013-08-10 14:15:00,93.4,31.1,29.03,ENE,70,3.6,5.4,11,0.00,,FEW047,0.00,VWS V14.00,2013-08-10 19:15:00,
2013-08-10 14:20:00,96.3,33.3,29.03,SE,144,0.0,2.2,11,0.00,,FEW047,0.00,VWS V14.00,2013-08-10 19:20:00,
2013-08-10 14:25:00,97.9,34.5,29.03,SSE,157,0.0,5.4,11,0.00,,FEW047,0.00,VWS V14.00,2013-08-10 19:25:00,
2013-08-10 14:30:00,99.3,33.2,29.03,NE,55,0.0,0.0,10,0.00,,FEW047,0.00,VWS V14.00,2013-08-10 19:30:00,
2013-08-10 14:35:00,99.3,33.2,29.03,ESE,104,0.0,3.1,10,0.00,,FEW047,0.00,VWS V14.00,2013-08-10 19:35:00,
2013-08-10 14:40:00,94.6,32.0,29.03,SE,129,0.0,2.7,11,0.00,,FEW047,0.00,VWS V14.00,2013-08-10 19:40:00,
2013-08-10 14:45:00,96.3,33.3,29.03,SE,134,2.2,4.9,11,0.00,,FEW047,0.00,VWS V14.00,2013-08-10 19:45:00,
2013-08-10 14:50:00,98.8,32.8,29.03,ENE,59,3.1,3.6,10,0.00,,FEW047,0.00,VWS V14.00,2013-08-10 19:50:00,
2013-08-10 14:55:00,95.9,33.0,29.03,NE,56,2.7,4.0,11,0.00,,FEW047,0.00,VWS V14.00,2013-08-10 19:55:00,
2013-08-10 15:00:00,92.5,32.5,29.03,ENE,69,0.0,4.0,12,0.00,,SCT049,0.00,VWS V14.00,2013-08-10 20:00:00,
2013-08-10 15:05:00,90.0,30.6,29.03,NE,56,0.0,0.0,12,0.00,,SCT049,0.00,VWS V14.00,2013-08-10 20:05:00,
2013-08-10 15:10:00,95.7,32.9,29.03,East,87,0.0,0.0,11,0.00,,SCT049,0.00,VWS V14.00,2013-08-10 20:10:00,
2013-08-10 15:15:00,100.0,33.8,29.03,SSE,157,0.0,2.7,10,0.00,,SCT049,0.00,VWS V14.00,2013-08-10 20:15:00,
2013-08-10 15:20:00,97.0,33.8,29.03,WNW,302,3.6,4.9,11,0.00,,SCT049,0.00,VWS V14.00,2013-08-10 20:20:00,
2013-08-10 15:25:00,89.8,30.5,29.03,SW,236,4.0,5.8,12,0.00,,SCT049,0.00,VWS V14.00,2013-08-10 20:25:00,
2013-08-10 15:30:00,92.3,32.4,29.03,WNW,300,2.2,2.2,12,0.00,,SCT049,0.00,VWS V14.00,2013-08-10 20:30:00,
2013-08-10 15:35:00,93.6,31.2,29.03,SE,132,3.1,3.6,11,0.00,,SCT049,0.00,VWS V14.00,2013-08-10 20:35:00,
2013-08-10 15:40:00,89.6,30.3,29.03,SE,136,0.0,0.0,12,0.00,,SCT049,0.00,VWS V14.00,2013-08-10 20:40:00,
2013-08-10 15:45:00,88.7,31.6,29.00,NE,37,0.0,3.6,13,0.00,,SCT049,0.00,VWS V14.00,2013-08-10 20:45:00,
2013-08-10 15:50:00,89.6,30.3,29.00,NW,322,0.0,0.0,12,0.00,,SCT049,0.00,VWS V14.00,2013-08-10 20:50:00,
2013-08-10 15:55:00,87.1,30.3,29.00,SW,214,0.0,4.9,13,0.00,,SCT049,0.00,VWS V14.00,2013-08-10 20:55:00,
2013-08-10 16:00:00,87.3,30.5,29.00,NW,308,0.0,0.0,13,0.00,,FEW050,0.00,VWS V14.00,2013-08-10 21:00:00,
2013-08-10 16:05:00,91.8,32.0,29.00,ESE,119,2.2,3.6,12,0.00,,FEW050,0.00,VWS V14.00,2013-08-10 21:05:00,
2013-08-10 16:10:00,96.4,33.4,29.00,ENE,64,0.0,0.0,11,0.00,,FEW050,0.00,VWS V14.00,2013-08-10 21:10:00,
2013-08-10 16:15:00,98.4,34.9,29.00,ESE,118,2.7,3.1,11,0.00,,FEW050,0.00,VWS V14.00,2013-08-10 21:15:00,
2013-08-10 16:20:00,95.0,32.3,29.00,SE,135,0.0,0.0,11,0.00,,FEW050,0.00,VWS V14.00,2013-08-10 21:20:00,
2013-08-10 16:25:00,92.5,32.5,29.00,ENE,63,0.0,2.2,12,0.00,,FEW050,0.00,VWS V14.00,2013-08-10 21:25:00,
2013-08-10 16:30:00,92.8,32.8,29.00,WNW,301,0.0,0.0,12,0.00,,FEW050,0.00,VWS V14.00,2013-08-10 21:30:00,
2013-08-10 16:35:00,94.3,31.8,29.00,NE,42,0.0,0.0,11,0.00,,FEW050,0.00,VWS V14.00,2013-08-10 21:35:00,
2013-08-10 16:40:00,91.9,32.1,29.00,SE,135,2.2,2.7,12,0.00,,FEW050,0.00,VWS V14.00,2013-08-10 21:40:00,
2013-08-10 16:45:00,88.5,31.5,29.00,ENE,64,3.6,4.5,13,0.00,,FEW050,0.00,VWS V14.00,2013-08-10 21:45:00,
2013-08-10 16:50:00,89.4,32.2,29.00,SW,225,3.1,3.1,13,0.00,,FEW050,0.00,VWS V14.00,2013-08-10 21:50:00,
2013-08-10 16:55:00,93.6,31.2,29.00,SE,128,3.6,4.9,11,0.00,,FEW050,0.00,VWS V14.00,2013-08-10 21:55:00,
2013-08-10 17:00:00,91.9,32.1,29.00,SE,126,0.0,0.0,12,0.00,,SCT200,0.00,VWS V14.00,2013-08-10 22:00:00,
2013-08-10 17:05:00,90.5,31.0,29.00,SE,127,0.0,0.0,12,0.00,,SCT200,0.00,VWS V14.00,2013-08-10 22:05:00,
2013-08-10 17:10:00,88.5,31.5,29.00,ESE,119,0.0,0.0,13,0.00,,SCT200,0.00,VWS V14.00,2013-08-10 22:10:00,
2013-08-10 17:15:00,89.2,32.0,29.00,East,84,0.0,0.0,13,0.00,,SCT200,0.00,VWS V14.00,2013-08-10 22:15:00,
2013-08-10 17:20:00,88.5,31.5,29.00,SE,136,0.0,0.0,13,0.00,,SCT200,0.00,VWS V14.00,2013-08-10 22:20:00,
2013-08-10 17:25:00,87.1,30.3,29.00,SE,137,0.0,0.0,13,0.00,,SCT200,0.00,VWS V14.00,2013-08-10 22:25:00,
2013-08-10 17:30:00,86.5,29.9,29.00,SE,137,0.0,0.0,13,0.00,,SCT200,0.00,VWS V14.00,2013-08-10 22:30:00,
2013-08-10 17:35:00,85.5,29.1,29.00,SE,139,0.0,0.0,13,0.00,,SCT200,0.00,VWS V14.00,2013-08-10 22:35:00,
2013-08-10 17:40:00,84.4,28.2,29.00,ESE,112,0.0,0.0,13,0.00,,SCT200,0.00,VWS V14.00,2013-08-10 22:40:00,
2013-08-10 17:45:00,83.7,29.5,29.00,ESE,118,0.0,0.0,14,0.00,,SCT200,0.00,VWS V14.00,2013-08-10 22:45:00,
2013-08-10 17:50:00,83.5,29.3,29.00,ESE,118,0.0,0.0,14,0.00,,SCT200,0.00,VWS V14.00,2013-08-10 22:50:00,
2013-08-10 17:55:00,83.3,29.2,29.00,SE,128,0.0,0.0,14,0.00,,SCT200,0.00,VWS V14.00,2013-08-10 22:55:00,
2013-08-10 18:00:00,83.1,29.0,29.00,SE,128,0.0,0.0,14,0.00,,OVC070,0.00,VWS V14.00,2013-08-10 23:00:00,
2013-08-10 18:05:00,83.3,32.5,29.00,NE,56,0.0,0.0,16,0.00,,OVC070,0.00,VWS V14.00,2013-08-10 23:05:00,
2013-08-10 18:10:00,82.9,32.2,29.00,NE,56,0.0,0.0,16,0.00,,OVC070,0.00,VWS V14.00,2013-08-10 23:10:00,
2013-08-10 18:15:00,82.6,31.9,29.00,NE,55,0.0,0.0,16,0.00,,OVC070,0.00,VWS V14.00,2013-08-10 23:15:00,
2013-08-10 18:20:00,81.9,32.8,29.00,NE,55,0.0,0.0,17,0.00,,OVC070,0.00,VWS V14.00,2013-08-10 23:20:00,
2013-08-10 18:25:00,81.5,32.5,29.00,NE,39,0.0,0.0,17,0.00,,OVC070,0.00,VWS V14.00,2013-08-10 23:25:00,
2013-08-10 18:30:00,81.1,35.0,29.00,NE,39,0.0,0.0,19,0.00,,OVC070,0.00,VWS V14.00,2013-08-10 23:30:00,
2013-08-10 18:35:00,81.3,35.2,29.00,ENE,61,0.0,0.0,19,0.00,,OVC070,0.00,VWS V14.00,2013-08-10 23:35:00,
2013-08-10 18:40:00,81.9,35.6,29.00,ENE,61,0.0,0.0,19,0.00,,OVC070,0.00,VWS V14.00,2013-08-10 23:40:00,
2013-08-10 18:45:00,82.9,36.5,29.00,ENE,61,0.0,0.0,19,0.00,,OVC070,0.00,VWS V14.00,2013-08-10 23:45:00,
2013-08-10 18:50:00,83.3,36.8,29.00,NE,34,0.0,0.0,19,0.00,,OVC070,0.00,VWS V14.00,2013-08-10 23:50:00,
2013-08-10 18:55:00,82.6,36.2,29.00,NE,34,0.0,0.0,19,0.00,,OVC070,0.00,VWS V14.00,2013-08-10 23:55:00,
2013-08-10 19:00:00,82.8,36.3,28.97,NE,43,0.0,0.0,19,0.00,,OVC100,0.00,VWS V14.00,2013-08-11 00:00:00,
2013-08-10 19:05:00,82.8,36.3,28.97,NE,44,0.0,0.0,19,0.00,,OVC100,0.00,VWS V14.00,2013-08-11 00:05:00,
2013-08-10 19:10:00,83.5,36.9,28.97,NE,44,0.0,0.0,19,0.00,,OVC100,0.00,VWS V14.00,2013-08-11 00:10:00,
2013-08-10 19:15:00,83.8,37.2,28.97,NE,44,0.0,0.0,19,0.00,,OVC100,0.00,VWS V14.00,2013-08-11 00:15:00,
2013-08-10 19:20:00,83.5,36.9,28.97,ENE,63,0.0,0.0,19,0.00,,OVC100,0.00,VWS V14.00,2013-08-11 00:20:00,
2013-08-10 19:25:00,82.8,36.3,28.97,ENE,63,0.0,0.0,19,0.00,,OVC100,0.00,VWS V14.00,2013-08-11 00:25:00,
2013-08-10 19:30:00,80.8,36.0,28.97,ENE,63,0.0,0.0,20,0.00,,OVC100,0.00,VWS V14.00,2013-08-11 00:30:00,
2013-08-10 19:35:00,79.2,35.9,28.97,ENE,63,0.0,0.0,21,0.00,,OVC100,0.00,VWS V14.00,2013-08-11 00:35:00,
2013-08-10 19:40:00,78.1,35.0,28.97,NE,48,0.0,0.0,21,0.00,,OVC100,0.00,VWS V14.00,2013-08-11 00:40:00,
2013-08-10 19:45:00,77.0,34.1,28.97,NE,48,0.0,0.0,21,0.00,,OVC100,0.00,VWS V14.00,2013-08-11 00:45:00,
2013-08-10 19:50:00,76.5,34.8,28.97,NE,48,0.0,0.0,22,0.00,,OVC100,0.00,VWS V14.00,2013-08-11 00:50:00,
2013-08-10 19:55:00,75.9,35.5,28.97,NE,48,0.0,0.0,23,0.00,,OVC100,0.00,VWS V14.00,2013-08-11 00:55:00,
2013-08-10 20:00:00,75.9,35.5,28.97,NE,48,0.0,0.0,23,0.00,,SCT150,0.00,VWS V14.00,2013-08-11 01:00:00,
2013-08-10 20:05:00,75.9,36.6,28.97,NE,48,0.0,0.0,24,0.00,,SCT150,0.00,VWS V14.00,2013-08-11 01:05:00,
2013-08-10 20:10:00,75.7,36.4,28.97,NE,48,0.0,0.0,24,0.00,,SCT150,0.00,VWS V14.00,2013-08-11 01:10:00,
2013-08-10 20:15:00,74.8,36.7,28.97,NE,48,0.0,0.0,25,0.00,,SCT150,0.00,VWS V14.00,2013-08-11 01:15:00,
2013-08-10 20:20:00,74.1,37.1,28.97,NE,48,0.0,0.0,26,0.00,,SCT150,0.00,VWS V14.00,2013-08-11 01:20:00,
2013-08-10 20:25:00,73.8,40.4,28.97,NE,48,0.0,0.0,30,0.00,,SCT150,0.00,VWS V14.00,2013-08-11 01:25:00,
2013-08-10 20:30:00,73.2,40.8,28.97,NE,48,0.0,0.0,31,0.00,,SCT150,0.00,VWS V14.00,2013-08-11 01:30:00,
2013-08-10 20:35:00,72.9,41.3,28.97,NE,48,0.0,0.0,32,0.00,,SCT150,0.00,VWS V14.00,2013-08-11 01:35:00,
2013-08-10 20:40:00,72.3,40.8,28.97,NE,48,0.0,0.0,32,0.00,,SCT150,0.00,VWS V14.00,2013-08-11 01:40:00,
2013-08-10 20:45:00,71.8,41.2,28.97,NE,48,0.0,0.0,33,0.00,,SCT150,0.00,VWS V14.00,2013-08-11 01:45:00,
2013-08-10 20:50:00,71.2,40.7,28.97,NE,48,0.0,0.0,33,0.00,,SCT150,0.00,VWS V14.00,2013-08-11 01:50:00,
2013-08-10 20:55:00,70.9,41.1,28.97,NE,48,0.0,0.0,34,0.00,,SCT150,0.00,VWS V14.00,2013-08-11 01:55:00,
2013-08-10 21:00:00,70.7,41.0,28.97,NE,48,0.0,0.0,34,0.00,,FEW110,0.00,VWS V14.00,2013-08-11 02:00:00,
2013-08-10 21:05:00,70.5,41.6,28.97,NE,48,0.0,0.0,35,0.00,,FEW110,0.00,VWS V14.00,2013-08-11 02:05:00,
2013-08-10 21:10:00,70.5,41.6,28.97,NE,48,0.0,0.0,35,0.00,,FEW110,0.00,VWS V14.00,2013-08-11 02:10:00,
2013-08-10 21:15:00,70.2,43.4,28.97,NE,48,0.0,0.0,38,0.00,,FEW110,0.00,VWS V14.00,2013-08-11 02:15:00,
2013-08-10 21:20:00,70.0,43.9,28.97,NE,48,0.0,0.0,39,0.00,,FEW110,0.00,VWS V14.00,2013-08-11 02:20:00,
2013-08-10 21:25:00,69.8,44.4,28.97,NE,48,0.0,0.0,40,0.00,,FEW110,0.00,VWS V14.00,2013-08-11 02:25:00,
2013-08-10 21:30:00,69.4,45.4,28.97,NE,48,0.0,0.0,42,0.00,,FEW110,0.00,VWS V14.00,2013-08-11 02:30:00,
2013-08-10 21:35:00,69.3,45.2,28.97,NE,48,0.0,0.0,42,0.00,,FEW110,0.00,VWS V14.00,2013-08-11 02:35:00,
2013-08-10 21:40:00,68.9,44.2,28.97,NE,48,0.0,0.0,41,0.00,,FEW110,0.00,VWS V14.00,2013-08-11 02:40:00,
2013-08-10 21:45:00,68.5,45.2,28.97,NE,48,0.0,0.0,43,0.00,,FEW110,0.00,VWS V14.00,2013-08-11 02:45:00,
2013-08-10 21:50:00,68.4,44.4,28.97,NE,48,0.0,0.0,42,0.00,,FEW110,0.00,VWS V14.00,2013-08-11 02:50:00,
2013-08-10 21:55:00,68.2,45.5,28.97,NE,48,0.0,0.0,44,0.00,,FEW110,0.00,VWS V14.00,2013-08-11 02:55:00,
2013-08-10 22:00:00,68.2,45.5,28.97,NE,48,0.0,0.0,44,0.00,,CLR,0.00,VWS V14.00,2013-08-11 03:00:00,
2013-08-10 22:05:00,68.2,46.6,28.97,NE,48,0.0,0.0,46,0.00,,CLR,0.00,VWS V14.00,2013-08-11 03:05:00,
2013-08-10 22:10:00,68.2,46.0,28.97,NE,48,0.0,0.0,45,0.00,,CLR,0.00,VWS V14.00,2013-08-11 03:10:00,
2013-08-10 22:15:00,68.0,45.9,28.97,NE,48,0.0,0.0,45,0.00,,CLR,0.00,VWS V14.00,2013-08-11 03:15:00,
2013-08-10 22:20:00,68.0,46.5,28.97,NE,51,0.0,0.0,46,0.00,,CLR,0.00,VWS V14.00,2013-08-11 03:20:00,
2013-08-10 22:25:00,68.2,46.0,28.97,NE,51,0.0,0.0,45,0.00,,CLR,0.00,VWS V14.00,2013-08-11 03:25:00,
2013-08-10 22:30:00,68.2,46.0,28.97,NE,49,0.0,0.0,45,0.00,,CLR,0.00,VWS V14.00,2013-08-11 03:30:00,
2013-08-10 22:36:00,68.4,46.2,28.97,NE,49,0.0,0.0,45,0.00,,CLR,0.00,VWS V14.00,2013-08-11 03:36:00,
2013-08-10 22:41:00,68.2,46.0,28.97,NE,49,0.0,0.0,45,0.00,,CLR,0.00,VWS V14.00,2013-08-11 03:41:00,
2013-08-10 22:46:00,68.4,46.2,28.97,NE,41,0.0,0.0,45,0.00,,CLR,0.00,VWS V14.00,2013-08-11 03:46:00,
2013-08-10 22:52:00,68.4,45.6,28.97,ENE,60,0.0,3.1,44,0.00,,CLR,0.00,VWS V14.00,2013-08-11 03:52:00,
2013-08-10 22:57:00,68.5,45.8,28.97,SE,131,4.0,4.9,44,0.00,,CLR,0.00,VWS V14.00,2013-08-11 03:57:00,
2013-08-10 23:01:00,68.5,45.8,28.97,ENE,70,0.0,0.0,44,0.00,,CLR,0.00,VWS V14.00,2013-08-11 04:01:00,
2013-08-10 23:06:00,68.5,45.2,28.97,NE,54,0.0,4.0,43,0.00,,CLR,0.00,VWS V14.00,2013-08-11 04:06:00,
2013-08-10 23:11:00,68.5,45.2,28.97,NE,48,2.7,2.7,43,0.00,,CLR,0.00,VWS V14.00,2013-08-11 04:11:00,
2013-08-10 23:16:00,68.5,45.2,28.97,East,92,0.0,3.1,43,0.00,,CLR,0.00,VWS V14.00,2013-08-11 04:16:00,
2013-08-10 23:21:00,68.5,45.2,28.97,ESE,122,3.6,3.6,43,0.00,,CLR,0.00,VWS V14.00,2013-08-11 04:21:00,
2013-08-10 23:26:00,68.4,45.0,28.97,ENE,62,0.0,4.0,43,0.00,,CLR,0.00,VWS V14.00,2013-08-11 04:26:00,
2013-08-10 23:31:00,68.4,45.0,28.97,ENE,62,0.0,2.2,43,0.00,,CLR,0.00,VWS V14.00,2013-08-11 04:31:00,
2013-08-10 23:36:00,68.2,44.9,28.97,East,84,3.6,5.4,43,0.00,,CLR,0.00,VWS V14.00,2013-08-11 04:36:00,
2013-08-10 23:41:00,68.2,44.2,28.97,East,99,0.0,2.2,42,0.00,,CLR,0.00,VWS V14.00,2013-08-11 04:41:00,
2013-08-10 23:46:00,68.0,44.1,28.97,East,97,0.0,2.2,42,0.00,,CLR,0.00,VWS V14.00,2013-08-11 04:46:00,
2013-08-10 23:51:00,67.8,44.5,28.97,NE,36,0.0,0.0,43,0.00,,CLR,0.00,VWS V14.00,2013-08-11 04:51:00,
2013-08-10 23:56:00,67.6,44.4,28.97,NE,48,0.0,0.0,43,0.00,,CLR,0.00,VWS V14.00,2013-08-11 04:56:00,